CDT,Max TemperatureF,Mean TemperatureF,Min TemperatureF,Max Dew PointF,MeanDew PointF,Min DewpointF,Max Humidity, Mean Humidity, Min Humidity, Max Sea Level PressureIn, Mean Sea Level PressureIn, Min Sea Level PressureIn, Max VisibilityMiles, Mean VisibilityMiles, Min VisibilityMiles, Max Wind SpeedMPH, Mean Wind SpeedMPH, Max Gust SpeedMPH,PrecipitationIn, CloudCover, Events, WindDirDegrees
2013-4-1,78,68,57,63,60,57,100,79,58,30.09,30.01,29.97,10,8,2,12,5,17,0.00,5,,91
2013-4-2,75,67,59,64,60,53,100,77,53,30.04,29.95,29.83,10,9,2,23,10,32,1.57,5,Rain-Thunderstorm,88
2013-4-3,64,57,50,64,56,48,93,84,75,30.07,29.92,29.82,10,8,1,23,13,32,0.86,8,Rain-Thunderstorm,20
2013-4-4,57,53,48,48,46,42,100,83,66,30.16,30.07,30.00,10,8,1,21,11,26,T,8,Rain,328
2013-4-5,72,58,44,52,46,42,93,67,40,30.24,30.16,30.09,10,10,10,16,6,22,0.00,2,,306
2013-4-6,72,61,49,57,54,48,93,75,57,30.13,30.06,30.00,10,9,2,20,10,26,0.00,2,,154
2013-4-7,77,70,63,64,60,56,87,74,60,30.02,29.96,29.91,10,10,10,21,13,25,0.00,7,,148
2013-4-8,78,72,66,66,65,64,93,81,69,29.92,29.87,29.84,10,10,7,26,16,37,0.00,7,,145
2013-4-9,79,74,68,70,68,64,93,85,76,29.86,29.83,29.78,10,8,6,36,19,47,T,6,Rain,137
2013-4-10,77,65,52,70,65,52,93,85,76,29.84,29.78,29.72,10,6,2,32,17,40,1.11,8,Rain-Thunderstorm,157
2013-4-11,68,57,46,52,48,43,100,74,48,29.88,29.81,29.72,10,7,2,28,10,36,1.53,6,Rain-Thunderstorm,330
2013-4-12,78,63,48,56,49,44,93,62,31,30.02,29.94,29.87,10,10,10,10,3,13,0.00,0,,65
2013-4-13,77,65,52,59,54,50,93,67,41,30.00,29.92,29.81,10,10,10,21,10,25,0.00,1,,101
2013-4-14,79,70,61,64,61,58,93,73,52,29.81,29.76,29.71,10,10,8,14,6,18,T,5,,118
2013-4-15,81,72,62,72,67,61,100,85,69,29.87,29.78,28.82,10,7,1,15,9,20,0.00,4,,150
2013-4-16,79,76,73,72,72,71,93,86,79,29.99,29.95,29.89,10,6,2,24,13,31,0.00,8,,134
2013-4-17,78,76,73,72,71,70,93,88,82,29.98,29.92,29.83,9,7,5,29,18,38,0.00,8,,135
2013-4-18,79,66,52,72,63,44,93,82,71,30.02,29.81,29.72,10,7,2,29,19,36,0.10,8,Rain,167
2013-4-19,67,57,46,44,36,31,77,53,29,30.22,30.14,30.03,10,10,8,30,13,39,0.00,0,,348
2013-4-20,68,54,40,45,40,35,83,59,34,30.27,30.19,30.12,10,10,10,18,7,51,0.00,0,,89
2013-4-21,74,60,46,54,49,45,93,67,41,30.19,30.14,30.08,10,10,9,17,6,29,0.00,2,,88
2013-4-22,78,66,53,57,54,48,93,66,38,30.12,30.06,29.99,10,10,7,14,7,20,0.00,1,,98
2013-4-23,80,70,60,70,65,59,97,80,62,30.01,29.97,29.92,10,9,6,18,10,23,T,6,,162
2013-4-24,73,62,50,70,55,46,93,70,47,30.21,30.09,29.95,10,9,6,23,14,30,0.12,7,Rain-Thunderstorm,17
2013-4-25,75,64,53,52,45,36,77,51,25,30.31,30.24,30.19,10,10,10,21,12,26,0.00,5,,57
2013-4-26,78,72,65,68,64,53,90,77,63,30.23,30.17,30.13,10,10,7,17,10,24,0.00,8,,129
2013-4-27,81,75,69,70,68,66,100,84,67,30.14,30.08,29.97,10,8,3,35,9,45,0.43,7,Rain,172
2013-4-28,80,72,63,65,62,60,100,77,54,30.02,29.97,29.91,10,10,6,29,7,37,0.30,3,Rain,154
2013-4-29,83,72,61,70,65,60,100,81,62,29.96,29.91,29.85,10,4,0,14,6,17,0.00,3,Fog,122
2013-4-30,82,75,68,68,66,64,97,78,58,29.87,29.82,29.77,10,10,7,16,7,18,T,3,,130